sensor_id;sensor_type;location;lat;lon;timestamp;pressure;altitude;pressure_sealevel;temperature;humidity
12969;BME280;6549;53.128;8.182;2023-04-28T00:00:15;101501.22;;;5.17;100.00
12969;BME280;6549;53.128;8.182;2023-04-28T00:03:16;101510.56;;;5.07;100.00
12969;BME280;6549;53.128;8.182;2023-04-28T00:06:16;101507.03;;;5.07;100.00
12969;BME280;6549;53.128;8.182;2023-04-28T00:09:16;101504.78;;;5.09;100.00
12969;BME280;6549;53.128;8.182;2023-04-28T00:12:17;101494.34;;;5.11;100.00
12969;BME280;6549;53.128;8.182;2023-04-28T00:15:17;101501.31;;;5.00;100.00
12969;BME280;6549;53.128;8.182;2023-04-28T00:18:20;101497.75;;;5.08;100.00
12969;BME280;6549;53.128;8.182;2023-04-28T00:21:21;101494.13;;;4.95;100.00
12969;BME280;6549;53.128;8.182;2023-04-28T00:24:21;101487.22;;;4.97;100.00
12969;BME280;6549;53.128;8.182;2023-04-28T00:27:21;101495.22;;;5.03;100.00
12969;BME280;6549;53.128;8.182;2023-04-28T00:30:22;101489.19;;;4.88;100.00
12969;BME280;6549;53.128;8.182;2023-04-28T00:33:24;101490.00;;;4.89;100.00
12969;BME280;6549;53.128;8.182;2023-04-28T00:36:24;101475.63;;;4.80;100.00
12969;BME280;6549;53.128;8.182;2023-04-28T00:39:24;101470.69;;;5.03;100.00
12969;BME280;6549;53.128;8.182;2023-04-28T00:42:26;101478.31;;;5.09;100.00
12969;BME280;6549;53.128;8.182;2023-04-28T00:45:27;101465.16;;;4.90;100.00
12969;BME280;6549;53.128;8.182;2023-04-28T00:48:27;101468.22;;;4.89;100.00
12969;BME280;6549;53.128;8.182;2023-04-28T00:51:28;101448.72;;;5.08;100.00
12969;BME280;6549;53.128;8.182;2023-04-28T00:54:29;101441.09;;;4.92;100.00
12969;BME280;6549;53.128;8.182;2023-04-28T00:57:30;101450.13;;;4.84;100.00
12969;BME280;6549;53.128;8.182;2023-04-28T01:00:32;101439.72;;;4.86;100.00
12969;BME280;6549;53.128;8.182;2023-04-28T01:03:34;101432.63;;;4.94;100.00
12969;BME280;6549;53.128;8.182;2023-04-28T01:06:37;101431.81;;;4.93;100.00
12969;BME280;6549;53.128;8.182;2023-04-28T01:09:37;101433.47;;;4.86;100.00
12969;BME280;6549;53.128;8.182;2023-04-28T01:12:38;101434.59;;;4.85;100.00
12969;BME280;6549;53.128;8.182;2023-04-28T01:15:38;101428.03;;;4.86;100.00
12969;BME280;6549;53.128;8.182;2023-04-28T01:18:41;101429.22;;;4.76;100.00
12969;BME280;6549;53.128;8.182;2023-04-28T01:21:45;101418.25;;;4.85;100.00
12969;BME280;6549;53.128;8.182;2023-04-28T01:24:46;101409.41;;;4.88;100.00
12969;BME280;6549;53.128;8.182;2023-04-28T01:27:46;101406.56;;;4.84;100.00
12969;BME280;6549;53.128;8.182;2023-04-28T01:30:46;101399.94;;;4.73;100.00
12969;BME280;6549;53.128;8.182;2023-04-28T01:33:47;101398.78;;;4.74;100.00
12969;BME280;6549;53.128;8.182;2023-04-28T01:36:47;101401.06;;;4.72;100.00
12969;BME280;6549;53.128;8.182;2023-04-28T01:39:47;101398.56;;;4.59;100.00
12969;BME280;6549;53.128;8.182;2023-04-28T01:42:48;101385.72;;;4.68;100.00
12969;BME280;6549;53.128;8.182;2023-04-28T01:45:48;101382.09;;;4.55;100.00
12969;BME280;6549;53.128;8.182;2023-04-28T01:48:48;101381.31;;;4.55;100.00
12969;BME280;6549;53.128;8.182;2023-04-28T01:51:49;101374.88;;;4.59;100.00
12969;BME280;6549;53.128;8.182;2023-04-28T01:54:49;101373.47;;;4.53;100.00
12969;BME280;6549;53.128;8.182;2023-04-28T01:57:50;101370.69;;;4.82;100.00
12969;BME280;6549;53.128;8.182;2023-04-28T02:00:50;101365.97;;;4.50;100.00
12969;BME280;6549;53.128;8.182;2023-04-28T02:03:50;101368.75;;;4.62;100.00
12969;BME280;6549;53.128;8.182;2023-04-28T02:06:51;101364.34;;;4.49;100.00
12969;BME280;6549;53.128;8.182;2023-04-28T02:09:51;101353.84;;;4.39;100.00
12969;BME280;6549;53.128;8.182;2023-04-28T02:12:51;101363.56;;;4.48;100.00
12969;BME280;6549;53.128;8.182;2023-04-28T02:15:51;101348.88;;;4.41;100.00
12969;BME280;6549;53.128;8.182;2023-04-28T02:18:52;101351.28;;;4.42;100.00
12969;BME280;6549;53.128;8.182;2023-04-28T02:21:52;101340.06;;;4.44;100.00
12969;BME280;6549;53.128;8.182;2023-04-28T02:24:52;101343.91;;;4.43;100.00
12969;BME280;6549;53.128;8.182;2023-04-28T02:27:53;101330.63;;;4.41;100.00
12969;BME280;6549;53.128;8.182;2023-04-28T02:31:02;101324.94;;;4.26;100.00
12969;BME280;6549;53.128;8.182;2023-04-28T02:34:03;101319.13;;;4.36;100.00
12969;BME280;6549;53.128;8.182;2023-04-28T02:37:03;101316.66;;;4.22;100.00
12969;BME280;6549;53.128;8.182;2023-04-28T02:40:03;101307.28;;;4.11;100.00
12969;BME280;6549;53.128;8.182;2023-04-28T02:43:04;101304.91;;;4.10;100.00
12969;BME280;6549;53.128;8.182;2023-04-28T02:46:04;101301.31;;;4.18;100.00
12969;BME280;6549;53.128;8.182;2023-04-28T02:49:05;101292.97;;;4.23;100.00
12969;BME280;6549;53.128;8.182;2023-04-28T02:52:05;101289.00;;;4.20;100.00
12969;BME280;6549;53.128;8.182;2023-04-28T02:55:06;101284.19;;;4.17;100.00
12969;BME280;6549;53.128;8.182;2023-04-28T02:58:06;101277.50;;;4.15;100.00
12969;BME280;6549;53.128;8.182;2023-04-28T03:01:06;101273.94;;;4.23;100.00
12969;BME280;6549;53.128;8.182;2023-04-28T03:04:07;101266.91;;;4.22;100.00
12969;BME280;6549;53.128;8.182;2023-04-28T03:07:07;101254.75;;;4.19;100.00
12969;BME280;6549;53.128;8.182;2023-04-28T03:10:07;101251.06;;;4.24;100.00
12969;BME280;6549;53.128;8.182;2023-04-28T03:13:08;101246.00;;;4.34;100.00
12969;BME280;6549;53.128;8.182;2023-04-28T03:16:08;101235.53;;;4.24;100.00
12969;BME280;6549;53.128;8.182;2023-04-28T03:19:08;101239.88;;;4.17;100.00
12969;BME280;6549;53.128;8.182;2023-04-28T03:22:09;101238.09;;;4.21;100.00
12969;BME280;6549;53.128;8.182;2023-04-28T03:25:09;101241.66;;;4.42;100.00
12969;BME280;6549;53.128;8.182;2023-04-28T03:28:10;101243.63;;;4.33;100.00
12969;BME280;6549;53.128;8.182;2023-04-28T03:31:10;101236.78;;;4.27;100.00
12969;BME280;6549;53.128;8.182;2023-04-28T03:34:11;101225.16;;;4.18;100.00
12969;BME280;6549;53.128;8.182;2023-04-28T03:37:11;101225.63;;;4.20;100.00
12969;BME280;6549;53.128;8.182;2023-04-28T03:40:12;101216.41;;;4.33;100.00
12969;BME280;6549;53.128;8.182;2023-04-28T03:43:13;101213.34;;;4.34;100.00
12969;BME280;6549;53.128;8.182;2023-04-28T03:46:13;101215.94;;;4.31;100.00
12969;BME280;6549;53.128;8.182;2023-04-28T03:49:14;101196.84;;;4.19;100.00
12969;BME280;6549;53.128;8.182;2023-04-28T03:52:14;101190.13;;;4.37;100.00
12969;BME280;6549;53.128;8.182;2023-04-28T03:55:15;101182.97;;;4.32;100.00
12969;BME280;6549;53.128;8.182;2023-04-28T03:58:15;101176.41;;;4.13;100.00
12969;BME280;6549;53.128;8.182;2023-04-28T04:01:16;101175.34;;;4.26;100.00
12969;BME280;6549;53.128;8.182;2023-04-28T04:04:16;101170.09;;;4.21;100.00
12969;BME280;6549;53.128;8.182;2023-04-28T04:07:16;101176.31;;;4.21;100.00
12969;BME280;6549;53.128;8.182;2023-04-28T04:10:17;101167.16;;;4.26;100.00
12969;BME280;6549;53.128;8.182;2023-04-28T04:13:17;101166.19;;;4.10;100.00
12969;BME280;6549;53.128;8.182;2023-04-28T04:16:17;101153.31;;;4.19;100.00
12969;BME280;6549;53.128;8.182;2023-04-28T04:19:18;101158.00;;;4.30;100.00
12969;BME280;6549;53.128;8.182;2023-04-28T04:22:18;101158.63;;;4.15;100.00
12969;BME280;6549;53.128;8.182;2023-04-28T04:25:18;101155.66;;;4.29;100.00
12969;BME280;6549;53.128;8.182;2023-04-28T04:28:19;101149.31;;;4.16;100.00
12969;BME280;6549;53.128;8.182;2023-04-28T04:31:19;101144.28;;;4.27;100.00
12969;BME280;6549;53.128;8.182;2023-04-28T04:34:19;101147.75;;;4.15;100.00
12969;BME280;6549;53.128;8.182;2023-04-28T04:37:20;101147.00;;;4.27;100.00
12969;BME280;6549;53.128;8.182;2023-04-28T04:40:20;101136.38;;;4.34;100.00
12969;BME280;6549;53.128;8.182;2023-04-28T04:43:21;101138.25;;;4.21;100.00
12969;BME280;6549;53.128;8.182;2023-04-28T04:46:21;101125.00;;;4.20;100.00
12969;BME280;6549;53.128;8.182;2023-04-28T04:49:21;101129.00;;;4.34;100.00
12969;BME280;6549;53.128;8.182;2023-04-28T04:52:22;101127.88;;;4.35;100.00
12969;BME280;6549;53.128;8.182;2023-04-28T04:55:22;101134.13;;;4.36;100.00
12969;BME280;6549;53.128;8.182;2023-04-28T04:58:23;101138.25;;;4.42;100.00
12969;BME280;6549;53.128;8.182;2023-04-28T05:01:23;101138.47;;;4.49;100.00
12969;BME280;6549;53.128;8.182;2023-04-28T05:04:24;101135.78;;;4.61;100.00
12969;BME280;6549;53.128;8.182;2023-04-28T05:07:25;101127.41;;;4.66;100.00
12969;BME280;6549;53.128;8.182;2023-04-28T05:10:25;101126.50;;;4.62;100.00
12969;BME280;6549;53.128;8.182;2023-04-28T05:13:26;101122.88;;;4.70;100.00
12969;BME280;6549;53.128;8.182;2023-04-28T05:16:26;101122.25;;;4.85;100.00
12969;BME280;6549;53.128;8.182;2023-04-28T05:19:27;101118.16;;;4.91;100.00
12969;BME280;6549;53.128;8.182;2023-04-28T05:22:27;101115.81;;;5.02;100.00
12969;BME280;6549;53.128;8.182;2023-04-28T05:25:27;101126.38;;;5.04;100.00
12969;BME280;6549;53.128;8.182;2023-04-28T05:28:29;101120.69;;;5.21;100.00
12969;BME280;6549;53.128;8.182;2023-04-28T05:31:29;101113.00;;;5.35;100.00
12969;BME280;6549;53.128;8.182;2023-04-28T05:34:30;101120.13;;;5.52;100.00
12969;BME280;6549;53.128;8.182;2023-04-28T05:37:30;101123.06;;;5.47;100.00
12969;BME280;6549;53.128;8.182;2023-04-28T05:40:31;101120.22;;;5.55;100.00
12969;BME280;6549;53.128;8.182;2023-04-28T05:43:31;101120.56;;;5.41;100.00
12969;BME280;6549;53.128;8.182;2023-04-28T05:46:31;101126.81;;;5.54;100.00
12969;BME280;6549;53.128;8.182;2023-04-28T05:49:32;101121.34;;;5.54;100.00
12969;BME280;6549;53.128;8.182;2023-04-28T05:52:32;101117.59;;;5.59;100.00
12969;BME280;6549;53.128;8.182;2023-04-28T05:55:32;101114.75;;;5.67;100.00
12969;BME280;6549;53.128;8.182;2023-04-28T05:58:35;101116.13;;;5.73;100.00
12969;BME280;6549;53.128;8.182;2023-04-28T06:01:35;101110.88;;;5.80;100.00
12969;BME280;6549;53.128;8.182;2023-04-28T06:04:37;101102.25;;;5.91;100.00
12969;BME280;6549;53.128;8.182;2023-04-28T06:07:38;101104.03;;;5.99;100.00
12969;BME280;6549;53.128;8.182;2023-04-28T06:10:38;101096.06;;;6.06;100.00
12969;BME280;6549;53.128;8.182;2023-04-28T06:13:38;101101.22;;;5.95;100.00
12969;BME280;6549;53.128;8.182;2023-04-28T06:16:39;101093.22;;;6.02;100.00
12969;BME280;6549;53.128;8.182;2023-04-28T06:19:39;101090.50;;;6.02;100.00
12969;BME280;6549;53.128;8.182;2023-04-28T06:22:40;101082.47;;;6.21;100.00
12969;BME280;6549;53.128;8.182;2023-04-28T06:25:41;101088.72;;;6.22;100.00
12969;BME280;6549;53.128;8.182;2023-04-28T06:28:42;101080.38;;;6.30;100.00
12969;BME280;6549;53.128;8.182;2023-04-28T06:31:42;101082.78;;;6.32;100.00
12969;BME280;6549;53.128;8.182;2023-04-28T06:34:42;101081.88;;;6.28;100.00
12969;BME280;6549;53.128;8.182;2023-04-28T06:37:43;101073.28;;;6.42;100.00
12969;BME280;6549;53.128;8.182;2023-04-28T06:40:43;101068.56;;;6.54;100.00
12969;BME280;6549;53.128;8.182;2023-04-28T06:43:45;101078.75;;;6.57;100.00
12969;BME280;6549;53.128;8.182;2023-04-28T06:46:45;101081.16;;;6.74;100.00
12969;BME280;6549;53.128;8.182;2023-04-28T06:49:45;101087.75;;;6.73;100.00
12969;BME280;6549;53.128;8.182;2023-04-28T06:52:49;101084.06;;;6.82;100.00
12969;BME280;6549;53.128;8.182;2023-04-28T06:55:49;101083.72;;;6.99;100.00
12969;BME280;6549;53.128;8.182;2023-04-28T06:58:49;101076.84;;;7.05;100.00
12969;BME280;6549;53.128;8.182;2023-04-28T07:01:50;101073.56;;;7.15;100.00
12969;BME280;6549;53.128;8.182;2023-04-28T07:04:50;101066.78;;;7.25;100.00
12969;BME280;6549;53.128;8.182;2023-04-28T07:07:50;101063.06;;;7.33;100.00
12969;BME280;6549;53.128;8.182;2023-04-28T07:10:51;101061.19;;;7.37;100.00
12969;BME280;6549;53.128;8.182;2023-04-28T07:13:51;101065.03;;;7.51;100.00
12969;BME280;6549;53.128;8.182;2023-04-28T07:16:51;101060.59;;;7.62;100.00
12969;BME280;6549;53.128;8.182;2023-04-28T07:19:52;101051.91;;;7.76;100.00
12969;BME280;6549;53.128;8.182;2023-04-28T07:22:52;101059.75;;;7.97;100.00
12969;BME280;6549;53.128;8.182;2023-04-28T07:25:52;101058.59;;;8.17;100.00
12969;BME280;6549;53.128;8.182;2023-04-28T07:28:53;101051.56;;;8.35;100.00
12969;BME280;6549;53.128;8.182;2023-04-28T07:31:53;101045.59;;;8.52;100.00
12969;BME280;6549;53.128;8.182;2023-04-28T07:34:53;101048.03;;;8.57;100.00
12969;BME280;6549;53.128;8.182;2023-04-28T07:37:54;101037.94;;;8.62;100.00
12969;BME280;6549;53.128;8.182;2023-04-28T07:40:54;101054.06;;;8.67;100.00
12969;BME280;6549;53.128;8.182;2023-04-28T07:43:54;101056.06;;;8.70;100.00
12969;BME280;6549;53.128;8.182;2023-04-28T07:46:55;101060.66;;;8.85;100.00
12969;BME280;6549;53.128;8.182;2023-04-28T07:49:56;101059.59;;;8.93;100.00
12969;BME280;6549;53.128;8.182;2023-04-28T07:52:57;101058.44;;;8.94;100.00
12969;BME280;6549;53.128;8.182;2023-04-28T07:55:58;101042.59;;;9.07;100.00
12969;BME280;6549;53.128;8.182;2023-04-28T07:58:58;101043.00;;;9.09;100.00
12969;BME280;6549;53.128;8.182;2023-04-28T08:01:58;101043.06;;;9.12;100.00
12969;BME280;6549;53.128;8.182;2023-04-28T08:04:59;101049.19;;;9.28;100.00
12969;BME280;6549;53.128;8.182;2023-04-28T08:07:59;101043.16;;;9.45;100.00
12969;BME280;6549;53.128;8.182;2023-04-28T08:11:00;101040.31;;;9.38;100.00
12969;BME280;6549;53.128;8.182;2023-04-28T08:14:00;101028.31;;;9.46;100.00
12969;BME280;6549;53.128;8.182;2023-04-28T08:17:02;101028.09;;;9.62;100.00
12969;BME280;6549;53.128;8.182;2023-04-28T08:20:02;101036.41;;;9.69;100.00
12969;BME280;6549;53.128;8.182;2023-04-28T08:23:03;101030.00;;;9.88;100.00
12969;BME280;6549;53.128;8.182;2023-04-28T08:26:03;101041.28;;;10.13;100.00
12969;BME280;6549;53.128;8.182;2023-04-28T08:29:04;101038.47;;;10.09;100.00
12969;BME280;6549;53.128;8.182;2023-04-28T08:32:05;101031.66;;;10.26;100.00
12969;BME280;6549;53.128;8.182;2023-04-28T08:35:06;101042.38;;;10.38;100.00
12969;BME280;6549;53.128;8.182;2023-04-28T08:38:07;101039.28;;;10.43;100.00
12969;BME280;6549;53.128;8.182;2023-04-28T08:41:14;101031.84;;;10.44;100.00
12969;BME280;6549;53.128;8.182;2023-04-28T08:44:15;101033.81;;;10.47;100.00
12969;BME280;6549;53.128;8.182;2023-04-28T08:47:17;101030.97;;;10.36;100.00
12969;BME280;6549;53.128;8.182;2023-04-28T08:50:20;101035.63;;;10.32;100.00
12969;BME280;6549;53.128;8.182;2023-04-28T08:53:22;101038.53;;;10.13;100.00
12969;BME280;6549;53.128;8.182;2023-04-28T08:56:26;101036.66;;;10.17;100.00
12969;BME280;6549;53.128;8.182;2023-04-28T08:59:26;101031.66;;;10.26;100.00
12969;BME280;6549;53.128;8.182;2023-04-28T09:02:27;101020.03;;;10.40;100.00
12969;BME280;6549;53.128;8.182;2023-04-28T09:05:27;101019.44;;;10.60;100.00
12969;BME280;6549;53.128;8.182;2023-04-28T09:08:27;101025.72;;;10.61;100.00
12969;BME280;6549;53.128;8.182;2023-04-28T09:11:28;101033.28;;;10.71;100.00
12969;BME280;6549;53.128;8.182;2023-04-28T09:14:30;101026.59;;;10.75;100.00
12969;BME280;6549;53.128;8.182;2023-04-28T09:17:30;101023.97;;;10.86;100.00
12969;BME280;6549;53.128;8.182;2023-04-28T09:20:31;101016.22;;;11.02;100.00
12969;BME280;6549;53.128;8.182;2023-04-28T09:23:33;101007.00;;;11.28;100.00
12969;BME280;6549;53.128;8.182;2023-04-28T09:26:52;101008.97;;;11.35;100.00
12969;BME280;6549;53.128;8.182;2023-04-28T09:29:52;101009.03;;;11.42;100.00
12969;BME280;6549;53.128;8.182;2023-04-28T09:33:05;101000.56;;;11.75;100.00
12969;BME280;6549;53.128;8.182;2023-04-28T09:36:07;101002.22;;;12.01;100.00
12969;BME280;6549;53.128;8.182;2023-04-28T09:39:07;100997.56;;;12.15;100.00
12969;BME280;6549;53.128;8.182;2023-04-28T09:42:07;101002.66;;;12.13;100.00
12969;BME280;6549;53.128;8.182;2023-04-28T09:45:10;100995.59;;;12.16;100.00
12969;BME280;6549;53.128;8.182;2023-04-28T09:48:11;100982.16;;;12.00;100.00
12969;BME280;6549;53.128;8.182;2023-04-28T09:51:19;100997.56;;;12.15;100.00
12969;BME280;6549;53.128;8.182;2023-04-28T09:54:20;100986.53;;;12.23;100.00
12969;BME280;6549;53.128;8.182;2023-04-28T09:57:22;100980.97;;;12.05;100.00
12969;BME280;6549;53.128;8.182;2023-04-28T10:00:22;100980.59;;;12.13;100.00
12969;BME280;6549;53.128;8.182;2023-04-28T10:03:25;100976.66;;;12.00;100.00
12969;BME280;6549;53.128;8.182;2023-04-28T10:06:26;100966.06;;;12.17;100.00
12969;BME280;6549;53.128;8.182;2023-04-28T10:09:27;100964.09;;;12.13;100.00
12969;BME280;6549;53.128;8.182;2023-04-28T10:12:28;100964.84;;;12.00;100.00
12969;BME280;6549;53.128;8.182;2023-04-28T10:15:29;100955.06;;;12.31;100.00
12969;BME280;6549;53.128;8.182;2023-04-28T10:18:30;100959.00;;;12.40;100.00
12969;BME280;6549;53.128;8.182;2023-04-28T10:21:34;100955.47;;;12.43;100.00
12969;BME280;6549;53.128;8.182;2023-04-28T10:28:18;100952.31;;;12.17;100.00
12969;BME280;6549;53.128;8.182;2023-04-28T10:31:20;100953.44;;;12.08;100.00
12969;BME280;6549;53.128;8.182;2023-04-28T10:34:21;100948.72;;;11.95;100.00
12969;BME280;6549;53.128;8.182;2023-04-28T10:41:01;100942.38;;;11.87;100.00
12969;BME280;6549;53.128;8.182;2023-04-28T10:48:00;100925.81;;;11.73;100.00
12969;BME280;6549;53.128;8.182;2023-04-28T10:54:06;100934.09;;;11.77;100.00
12969;BME280;6549;53.128;8.182;2023-04-28T10:57:14;100930.50;;;11.69;100.00
12969;BME280;6549;53.128;8.182;2023-04-28T11:00:28;100931.28;;;11.69;100.00
12969;BME280;6549;53.128;8.182;2023-04-28T11:06:46;100930.19;;;11.81;100.00
12969;BME280;6549;53.128;8.182;2023-04-28T11:10:07;100920.31;;;11.73;100.00
12969;BME280;6549;53.128;8.182;2023-04-28T11:13:26;100907.75;;;11.83;100.00
12969;BME280;6549;53.128;8.182;2023-04-28T11:16:26;100902.28;;;12.00;100.00
12969;BME280;6549;53.128;8.182;2023-04-28T11:19:29;100899.91;;;11.95;100.00
12969;BME280;6549;53.128;8.182;2023-04-28T11:22:29;100896.00;;;12.07;100.00
12969;BME280;6549;53.128;8.182;2023-04-28T11:25:53;100888.53;;;12.29;100.00
12969;BME280;6549;53.128;8.182;2023-04-28T11:28:55;100892.47;;;12.21;100.00
12969;BME280;6549;53.128;8.182;2023-04-28T11:31:56;100892.09;;;12.29;100.00
12969;BME280;6549;53.128;8.182;2023-04-28T11:34:56;100893.25;;;12.10;100.00
12969;BME280;6549;53.128;8.182;2023-04-28T11:38:01;100881.44;;;12.17;100.00
12969;BME280;6549;53.128;8.182;2023-04-28T11:41:03;100881.03;;;12.22;100.00
12969;BME280;6549;53.128;8.182;2023-04-28T11:44:15;100873.56;;;12.40;100.00
12969;BME280;6549;53.128;8.182;2023-04-28T11:47:27;100877.91;;;12.38;100.00
12969;BME280;6549;53.128;8.182;2023-04-28T11:50:35;100879.88;;;12.55;100.00
12969;BME280;6549;53.128;8.182;2023-04-28T11:53:43;100879.81;;;12.80;100.00
12969;BME280;6549;53.128;8.182;2023-04-28T11:56:43;100876.31;;;12.65;100.00
12969;BME280;6549;53.128;8.182;2023-04-28T11:59:44;100877.06;;;12.76;100.00
12969;BME280;6549;53.128;8.182;2023-04-28T12:02:45;100880.22;;;12.82;100.00
12969;BME280;6549;53.128;8.182;2023-04-28T12:05:45;100878.66;;;12.77;100.00
12969;BME280;6549;53.128;8.182;2023-04-28T12:08:47;100877.47;;;12.78;100.00
12969;BME280;6549;53.128;8.182;2023-04-28T12:12:01;100879.44;;;12.74;100.00
12969;BME280;6549;53.128;8.182;2023-04-28T12:15:06;100881.03;;;12.79;100.00
12969;BME280;6549;53.128;8.182;2023-04-28T12:18:10;100869.94;;;12.96;100.00
12969;BME280;6549;53.128;8.182;2023-04-28T12:21:20;100867.53;;;13.05;100.00
12969;BME280;6549;53.128;8.182;2023-04-28T12:24:20;100862.03;;;12.98;100.00
12969;BME280;6549;53.128;8.182;2023-04-28T12:27:21;100858.91;;;13.00;100.00
12969;BME280;6549;53.128;8.182;2023-04-28T12:30:24;100863.22;;;13.12;100.00
12969;BME280;6549;53.128;8.182;2023-04-28T12:33:25;100862.38;;;13.25;100.00
12969;BME280;6549;53.128;8.182;2023-04-28T12:36:26;100862.75;;;13.31;100.00
12969;BME280;6549;53.128;8.182;2023-04-28T12:39:27;100852.97;;;13.12;100.00
12969;BME280;6549;53.128;8.182;2023-04-28T12:42:27;100851.66;;;13.38;100.00
12969;BME280;6549;53.128;8.182;2023-04-28T12:45:28;100855.94;;;13.53;100.00
12969;BME280;6549;53.128;8.182;2023-04-28T12:48:30;100846.88;;;13.45;100.00
12969;BME280;6549;53.128;8.182;2023-04-28T12:51:31;100846.81;;;13.60;100.00
12969;BME280;6549;53.128;8.182;2023-04-28T12:54:31;100841.13;;;13.81;100.00
12969;BME280;6549;53.128;8.182;2023-04-28T12:57:32;100837.13;;;13.92;100.00
12969;BME280;6549;53.128;8.182;2023-04-28T13:00:35;100831.63;;;13.85;100.00
12969;BME280;6549;53.128;8.182;2023-04-28T13:03:35;100826.25;;;13.71;100.00
12969;BME280;6549;53.128;8.182;2023-04-28T13:06:36;100826.94;;;13.82;100.00
12969;BME280;6549;53.128;8.182;2023-04-28T13:09:36;100826.06;;;13.92;100.00
12969;BME280;6549;53.128;8.182;2023-04-28T13:12:36;100828.13;;;13.85;100.00
12969;BME280;6549;53.128;8.182;2023-04-28T13:15:37;100821.25;;;14.04;100.00
12969;BME280;6549;53.128;8.182;2023-04-28T13:18:37;100823.81;;;13.80;100.00
12969;BME280;6549;53.128;8.182;2023-04-28T13:21:37;100821.81;;;13.84;100.00
12969;BME280;6549;53.128;8.182;2023-04-28T13:24:37;100822.50;;;13.95;100.00
12969;BME280;6549;53.128;8.182;2023-04-28T13:27:38;100822.03;;;14.04;100.00
12969;BME280;6549;53.128;8.182;2023-04-28T13:30:38;100811.44;;;13.95;100.00
12969;BME280;6549;53.128;8.182;2023-04-28T13:33:39;100799.41;;;13.72;100.00
12969;BME280;6549;53.128;8.182;2023-04-28T13:36:40;100789.81;;;13.87;100.00
12969;BME280;6549;53.128;8.182;2023-04-28T13:39:40;100775.09;;;14.01;100.00
12969;BME280;6549;53.128;8.182;2023-04-28T13:42:41;100772.38;;;13.97;100.00
12969;BME280;6549;53.128;8.182;2023-04-28T13:45:41;100767.13;;;14.10;100.00
12969;BME280;6549;53.128;8.182;2023-04-28T13:48:41;100764.31;;;14.13;100.00
12969;BME280;6549;53.128;8.182;2023-04-28T13:51:42;100763.53;;;14.13;100.00
12969;BME280;6549;53.128;8.182;2023-04-28T13:54:44;100745.25;;;14.26;100.00
12969;BME280;6549;53.128;8.182;2023-04-28T13:57:44;100744.06;;;14.27;100.00
12969;BME280;6549;53.128;8.182;2023-04-28T14:00:45;100742.91;;;14.24;100.00
12969;BME280;6549;53.128;8.182;2023-04-28T14:03:45;100743.97;;;14.34;100.00
12969;BME280;6549;53.128;8.182;2023-04-28T14:06:45;100754.94;;;14.45;100.00
12969;BME280;6549;53.128;8.182;2023-04-28T14:09:46;100740.34;;;14.44;100.00
12969;BME280;6549;53.128;8.182;2023-04-28T14:12:46;100735.66;;;14.41;100.00
12969;BME280;6549;53.128;8.182;2023-04-28T14:15:47;100737.78;;;14.23;100.00
12969;BME280;6549;53.128;8.182;2023-04-28T14:18:47;100731.50;;;14.19;100.00
12969;BME280;6549;53.128;8.182;2023-04-28T14:21:48;100723.56;;;14.21;100.00
12969;BME280;6549;53.128;8.182;2023-04-28T14:24:49;100714.56;;;14.13;100.00
12969;BME280;6549;53.128;8.182;2023-04-28T14:27:50;100724.53;;;14.07;100.00
12969;BME280;6549;53.128;8.182;2023-04-28T14:30:52;100725.66;;;14.10;100.00
12969;BME280;6549;53.128;8.182;2023-04-28T14:33:53;100724.94;;;14.06;100.00
12969;BME280;6549;53.128;8.182;2023-04-28T14:36:53;100731.75;;;13.90;100.00
12969;BME280;6549;53.128;8.182;2023-04-28T14:39:53;100736.97;;;13.81;100.00
12969;BME280;6549;53.128;8.182;2023-04-28T14:42:54;100729.91;;;13.77;100.00
12969;BME280;6549;53.128;8.182;2023-04-28T14:45:54;100730.34;;;13.75;100.00
12969;BME280;6549;53.128;8.182;2023-04-28T14:48:55;100727.31;;;13.56;100.00
12969;BME280;6549;53.128;8.182;2023-04-28T14:51:56;100738.00;;;13.54;100.00
12969;BME280;6549;53.128;8.182;2023-04-28T14:54:57;100725.78;;;13.51;100.00
12969;BME280;6549;53.128;8.182;2023-04-28T14:57:57;100721.31;;;13.68;100.00
12969;BME280;6549;53.128;8.182;2023-04-28T15:00:58;100719.84;;;13.56;100.00
12969;BME280;6549;53.128;8.182;2023-04-28T15:03:58;100721.13;;;13.44;100.00
12969;BME280;6549;53.128;8.182;2023-04-28T15:06:59;100716.94;;;13.22;100.00
12969;BME280;6549;53.128;8.182;2023-04-28T15:10:00;100708.53;;;13.40;100.00
12969;BME280;6549;53.128;8.182;2023-04-28T15:13:00;100705.34;;;13.41;100.00
12969;BME280;6549;53.128;8.182;2023-04-28T15:16:01;100700.25;;;13.40;100.00
12969;BME280;6549;53.128;8.182;2023-04-28T15:19:01;100699.34;;;13.50;100.00
12969;BME280;6549;53.128;8.182;2023-04-28T15:22:02;100697.38;;;13.54;100.00
12969;BME280;6549;53.128;8.182;2023-04-28T15:25:02;100691.88;;;13.50;100.00
12969;BME280;6549;53.128;8.182;2023-04-28T15:28:03;100698.59;;;13.49;100.00
12969;BME280;6549;53.128;8.182;2023-04-28T15:31:06;100703.38;;;13.42;100.00
12969;BME280;6549;53.128;8.182;2023-04-28T15:34:06;100699.03;;;13.41;100.00
12969;BME280;6549;53.128;8.182;2023-04-28T15:37:39;100713.66;;;13.38;100.00
12969;BME280;6549;53.128;8.182;2023-04-28T15:40:40;100713.69;;;13.34;100.00
12969;BME280;6549;53.128;8.182;2023-04-28T15:43:41;100714.50;;;13.28;100.00
12969;BME280;6549;53.128;8.182;2023-04-28T15:46:43;100701.16;;;13.23;100.00
12969;BME280;6549;53.128;8.182;2023-04-28T15:49:44;100713.81;;;13.17;100.00
12969;BME280;6549;53.128;8.182;2023-04-28T15:52:44;100711.09;;;13.02;100.00
12969;BME280;6549;53.128;8.182;2023-04-28T15:55:45;100712.31;;;12.94;100.00
12969;BME280;6549;53.128;8.182;2023-04-28T15:58:45;100707.63;;;12.91;100.00
12969;BME280;6549;53.128;8.182;2023-04-28T16:01:47;100704.50;;;12.82;100.00
12969;BME280;6549;53.128;8.182;2023-04-28T16:04:48;100694.28;;;12.83;100.00
12969;BME280;6549;53.128;8.182;2023-04-28T16:07:48;100701.38;;;12.80;100.00
12969;BME280;6549;53.128;8.182;2023-04-28T16:10:49;100713.22;;;12.74;100.00